sensor_id;sensor_type;location;lat;lon;timestamp;pressure;altitude;pressure_sealevel;temperature;humidity
69574;BME280;62840;52.366;5.980;2023-04-12T00:00:51;100467.31;;;10.08;59.32
69574;BME280;62840;52.366;5.980;2023-04-12T00:03:17;100461.88;;;10.09;59.21
69574;BME280;62840;52.366;5.980;2023-04-12T00:05:43;100449.25;;;10.11;59.28
69574;BME280;62840;52.366;5.980;2023-04-12T00:08:09;100439.31;;;10.13;59.44
69574;BME280;62840;52.366;5.980;2023-04-12T00:10:34;100433.16;;;10.13;59.49
69574;BME280;62840;52.366;5.980;2023-04-12T00:13:00;100422.63;;;10.11;59.62
69574;BME280;62840;52.366;5.980;2023-04-12T00:15:29;100416.28;;;10.12;59.61
69574;BME280;62840;52.366;5.980;2023-04-12T00:17:55;100420.66;;;10.13;59.84
69574;BME280;62840;52.366;5.980;2023-04-12T00:20:20;100411.81;;;10.13;59.91
69574;BME280;62840;52.366;5.980;2023-04-12T00:22:46;100405.63;;;10.12;60.17
69574;BME280;62840;52.366;5.980;2023-04-12T00:25:12;100397.91;;;10.09;60.40
69574;BME280;62840;52.366;5.980;2023-04-12T00:27:37;100383.06;;;10.07;60.89
69574;BME280;62840;52.366;5.980;2023-04-12T00:30:04;100385.13;;;10.03;60.70
69574;BME280;62840;52.366;5.980;2023-04-12T00:32:34;100375.47;;;10.02;61.08
69574;BME280;62840;52.366;5.980;2023-04-12T00:35:00;100367.88;;;9.97;61.36
69574;BME280;62840;52.366;5.980;2023-04-12T00:37:25;100365.34;;;9.96;61.42
69574;BME280;62840;52.366;5.980;2023-04-12T00:39:51;100361.25;;;9.92;61.53
69574;BME280;62840;52.366;5.980;2023-04-12T00:42:17;100362.25;;;9.91;61.72
69574;BME280;62840;52.366;5.980;2023-04-12T00:44:42;100355.22;;;9.90;61.87
69574;BME280;62840;52.366;5.980;2023-04-12T00:47:08;100355.22;;;9.90;62.24
69574;BME280;62840;52.366;5.980;2023-04-12T00:49:37;100349.06;;;9.89;62.32
69574;BME280;62840;52.366;5.980;2023-04-12T00:52:04;100334.91;;;9.89;62.17
69574;BME280;62840;52.366;5.980;2023-04-12T00:54:33;100326.91;;;9.89;62.60
69574;BME280;62840;52.366;5.980;2023-04-12T00:56:59;100324.53;;;9.86;62.50
69574;BME280;62840;52.366;5.980;2023-04-12T00:59:25;100315.81;;;9.83;63.03
69574;BME280;62840;52.366;5.980;2023-04-12T01:01:51;100316.94;;;9.81;62.95
69574;BME280;62840;52.366;5.980;2023-04-12T01:04:19;100301.22;;;9.78;63.02
69574;BME280;62840;52.366;5.980;2023-04-12T01:07:09;100289.00;;;9.75;63.20
69574;BME280;62840;52.366;5.980;2023-04-12T01:09:52;100290.97;;;9.73;63.32
69574;BME280;62840;52.366;5.980;2023-04-12T01:12:33;100283.97;;;9.72;63.42
69574;BME280;62840;52.366;5.980;2023-04-12T01:15:13;100284.94;;;9.71;63.55
69574;BME280;62840;52.366;5.980;2023-04-12T01:17:45;100286.75;;;9.71;63.56
69574;BME280;62840;52.366;5.980;2023-04-12T01:20:19;100275.28;;;9.70;63.65
69574;BME280;62840;52.366;5.980;2023-04-12T01:23:06;100268.25;;;9.69;64.26
69574;BME280;62840;52.366;5.980;2023-04-12T01:25:49;100257.16;;;9.64;64.07
69574;BME280;62840;52.366;5.980;2023-04-12T01:28:37;100240.47;;;9.62;64.44
69574;BME280;62840;52.366;5.980;2023-04-12T01:31:11;100239.78;;;9.60;64.63
69574;BME280;62840;52.366;5.980;2023-04-12T01:33:44;100228.41;;;9.58;64.69
69574;BME280;62840;52.366;5.980;2023-04-12T01:36:20;100233.75;;;9.58;64.63
69574;BME280;62840;52.366;5.980;2023-04-12T01:38:48;100225.75;;;9.58;64.56
69574;BME280;62840;52.366;5.980;2023-04-12T01:41:19;100216.09;;;9.57;64.82
69574;BME280;62840;52.366;5.980;2023-04-12T01:43:48;100216.09;;;9.57;64.61
69574;BME280;62840;52.366;5.980;2023-04-12T01:46:21;100206.41;;;9.56;65.04
69574;BME280;62840;52.366;5.980;2023-04-12T01:48:51;100203.06;;;9.54;65.07
69574;BME280;62840;52.366;5.980;2023-04-12T01:51:38;100190.72;;;9.53;65.23
69574;BME280;62840;52.366;5.980;2023-04-12T01:54:17;100182.03;;;9.51;65.24
69574;BME280;62840;52.366;5.980;2023-04-12T01:56:57;100174.88;;;9.51;65.28
69574;BME280;62840;52.366;5.980;2023-04-12T01:59:38;100154.69;;;9.49;65.32
69574;BME280;62840;52.366;5.980;2023-04-12T02:02:08;100150.38;;;9.48;65.63
69574;BME280;62840;52.366;5.980;2023-04-12T02:04:36;100145.31;;;9.45;65.68
69574;BME280;62840;52.366;5.980;2023-04-12T02:07:06;100143.75;;;9.42;65.79
69574;BME280;62840;52.366;5.980;2023-04-12T02:09:35;100138.72;;;9.39;65.88
69574;BME280;62840;52.366;5.980;2023-04-12T02:12:03;100134.53;;;9.36;65.95
69574;BME280;62840;52.366;5.980;2023-04-12T02:14:34;100138.13;;;9.35;66.13
69574;BME280;62840;52.366;5.980;2023-04-12T02:17:05;100127.50;;;9.35;66.03
69574;BME280;62840;52.366;5.980;2023-04-12T02:19:31;100120.50;;;9.34;65.96
69574;BME280;62840;52.366;5.980;2023-04-12T02:21:57;100113.47;;;9.33;65.92
69574;BME280;62840;52.366;5.980;2023-04-12T02:24:23;100100.88;;;9.35;66.00
69574;BME280;62840;52.366;5.980;2023-04-12T02:26:48;100091.38;;;9.33;66.17
69574;BME280;62840;52.366;5.980;2023-04-12T02:29:17;100087.16;;;9.30;66.20
69574;BME280;62840;52.366;5.980;2023-04-12T02:31:48;100087.16;;;9.30;66.28
69574;BME280;62840;52.366;5.980;2023-04-12T02:34:14;100076.50;;;9.30;66.37
69574;BME280;62840;52.366;5.980;2023-04-12T02:36:40;100058.00;;;9.29;66.36
69574;BME280;62840;52.366;5.980;2023-04-12T02:39:05;100049.91;;;9.30;66.49
69574;BME280;62840;52.366;5.980;2023-04-12T02:41:32;100047.13;;;9.32;66.51
69574;BME280;62840;52.366;5.980;2023-04-12T02:43:59;100030.31;;;9.31;66.79
69574;BME280;62840;52.366;5.980;2023-04-12T02:46:25;100039.25;;;9.30;66.71
69574;BME280;62840;52.366;5.980;2023-04-12T02:48:57;100040.34;;;9.28;66.72
69574;BME280;62840;52.366;5.980;2023-04-12T02:51:22;100025.22;;;9.28;66.51
69574;BME280;62840;52.366;5.980;2023-04-12T02:53:52;100001.28;;;9.28;66.68
69574;BME280;62840;52.366;5.980;2023-04-12T02:56:18;100005.66;;;9.29;66.47
69574;BME280;62840;52.366;5.980;2023-04-12T02:58:44;100005.66;;;9.29;66.70
69574;BME280;62840;52.366;5.980;2023-04-12T03:01:11;100002.28;;;9.27;67.08
69574;BME280;62840;52.366;5.980;2023-04-12T03:03:37;99990.22;;;9.23;67.25
69574;BME280;62840;52.366;5.980;2023-04-12T03:06:16;99976.22;;;9.21;66.96
69574;BME280;62840;52.366;5.980;2023-04-12T03:08:42;99987.69;;;9.21;67.26
69574;BME280;62840;52.366;5.980;2023-04-12T03:11:08;99978.16;;;9.19;66.81
69574;BME280;62840;52.366;5.980;2023-04-12T03:13:33;99967.25;;;9.22;66.73
69574;BME280;62840;52.366;5.980;2023-04-12T03:16:20;99952.97;;;9.23;66.96
69574;BME280;62840;52.366;5.980;2023-04-12T03:18:47;99958.28;;;9.23;66.83
69574;BME280;62840;52.366;5.980;2023-04-12T03:21:17;99957.47;;;9.23;66.83
69574;BME280;62840;52.366;5.980;2023-04-12T03:23:47;99934.34;;;9.23;66.71
69574;BME280;62840;52.366;5.980;2023-04-12T03:26:13;99923.00;;;9.21;67.00
69574;BME280;62840;52.366;5.980;2023-04-12T03:28:41;99916.28;;;9.17;66.91
69574;BME280;62840;52.366;5.980;2023-04-12T03:31:07;99916.28;;;9.17;67.02
69574;BME280;62840;52.366;5.980;2023-04-12T03:33:33;99917.97;;;9.18;66.91
69574;BME280;62840;52.366;5.980;2023-04-12T03:36:01;99921.59;;;9.17;67.12
69574;BME280;62840;52.366;5.980;2023-04-12T03:38:30;99912.66;;;9.18;67.06
69574;BME280;62840;52.366;5.980;2023-04-12T03:40:56;99910.13;;;9.16;67.32
69574;BME280;62840;52.366;5.980;2023-04-12T03:43:22;99898.91;;;9.13;67.02
69574;BME280;62840;52.366;5.980;2023-04-12T03:45:48;99886.63;;;9.12;67.53
69574;BME280;62840;52.366;5.980;2023-04-12T03:48:15;99888.56;;;9.10;67.38
69574;BME280;62840;52.366;5.980;2023-04-12T03:50:41;99881.59;;;9.09;67.51
69574;BME280;62840;52.366;5.980;2023-04-12T03:53:07;99880.88;;;9.07;67.55
69574;BME280;62840;52.366;5.980;2023-04-12T03:55:42;99881.59;;;9.09;67.89
69574;BME280;62840;52.366;5.980;2023-04-12T03:58:08;99872.91;;;9.07;67.62
69574;BME280;62840;52.366;5.980;2023-04-12T04:00:34;99871.22;;;9.06;67.48
69574;BME280;62840;52.366;5.980;2023-04-12T04:03:01;99869.38;;;9.06;67.64
69574;BME280;62840;52.366;5.980;2023-04-12T04:05:27;99869.53;;;9.05;67.89
69574;BME280;62840;52.366;5.980;2023-04-12T04:07:56;99868.56;;;9.06;67.96
69574;BME280;62840;52.366;5.980;2023-04-12T04:10:22;99870.38;;;9.05;67.99
69574;BME280;62840;52.366;5.980;2023-04-12T04:12:54;99859.16;;;9.01;68.12
69574;BME280;62840;52.366;5.980;2023-04-12T04:15:20;99855.81;;;8.99;68.29
69574;BME280;62840;52.366;5.980;2023-04-12T04:17:49;99850.50;;;8.99;68.27
69574;BME280;62840;52.366;5.980;2023-04-12T04:20:15;99845.34;;;8.98;68.38
69574;BME280;62840;52.366;5.980;2023-04-12T04:22:43;99833.88;;;8.97;68.35
69574;BME280;62840;52.366;5.980;2023-04-12T04:25:11;99835.66;;;8.97;68.36
69574;BME280;62840;52.366;5.980;2023-04-12T04:27:37;99834.00;;;8.96;68.58
69574;BME280;62840;52.366;5.980;2023-04-12T04:30:07;99813.84;;;8.93;68.54
69574;BME280;62840;52.366;5.980;2023-04-12T04:32:33;99811.31;;;8.92;68.85
69574;BME280;62840;52.366;5.980;2023-04-12T04:34:59;99799.84;;;8.91;68.87
69574;BME280;62840;52.366;5.980;2023-04-12T04:37:25;99799.84;;;8.91;68.83
69574;BME280;62840;52.366;5.980;2023-04-12T04:39:58;99790.47;;;8.87;68.95
69574;BME280;62840;52.366;5.980;2023-04-12T04:42:23;99785.44;;;8.84;69.00
69574;BME280;62840;52.366;5.980;2023-04-12T04:44:49;99786.41;;;8.83;69.08
69574;BME280;62840;52.366;5.980;2023-04-12T04:47:19;99788.13;;;8.84;69.19
69574;BME280;62840;52.366;5.980;2023-04-12T04:49:48;99777.47;;;8.84;69.17
69574;BME280;62840;52.366;5.980;2023-04-12T04:52:18;99775.78;;;8.83;69.13
69574;BME280;62840;52.366;5.980;2023-04-12T04:54:44;99777.75;;;8.81;69.26
69574;BME280;62840;52.366;5.980;2023-04-12T04:57:10;99778.72;;;8.80;69.46
69574;BME280;62840;52.366;5.980;2023-04-12T04:59:36;99773.41;;;8.80;69.37
69574;BME280;62840;52.366;5.980;2023-04-12T05:02:02;99770.75;;;8.80;69.49
69574;BME280;62840;52.366;5.980;2023-04-12T05:04:34;99765.44;;;8.80;69.43
69574;BME280;62840;52.366;5.980;2023-04-12T05:06:59;99763.75;;;8.79;69.68
69574;BME280;62840;52.366;5.980;2023-04-12T05:09:25;99754.81;;;8.80;69.67
69574;BME280;62840;52.366;5.980;2023-04-12T05:11:54;99747.09;;;8.77;69.70
69574;BME280;62840;52.366;5.980;2023-04-12T05:14:23;99755.06;;;8.77;69.68
69574;BME280;62840;52.366;5.980;2023-04-12T05:16:52;99746.13;;;8.78;69.88
69574;BME280;62840;52.366;5.980;2023-04-12T05:19:18;99749.75;;;8.77;69.69
69574;BME280;62840;52.366;5.980;2023-04-12T05:21:48;99742.78;;;8.76;69.93
69574;BME280;62840;52.366;5.980;2023-04-12T05:24:13;99735.81;;;8.75;70.06
69574;BME280;62840;52.366;5.980;2023-04-12T05:26:42;99738.47;;;8.75;70.15
69574;BME280;62840;52.366;5.980;2023-04-12T05:29:08;99737.47;;;8.76;70.14
69574;BME280;62840;52.366;5.980;2023-04-12T05:31:37;99741.78;;;8.77;70.02
69574;BME280;62840;52.366;5.980;2023-04-12T05:34:05;99735.50;;;8.78;69.90
69574;BME280;62840;52.366;5.980;2023-04-12T05:36:32;99738.84;;;8.80;70.20
69574;BME280;62840;52.366;5.980;2023-04-12T05:39:00;99740.81;;;8.78;70.13
69574;BME280;62840;52.366;5.980;2023-04-12T05:41:28;99740.94;;;8.76;70.31
69574;BME280;62840;52.366;5.980;2023-04-12T05:43:54;99734.81;;;8.76;70.62
69574;BME280;62840;52.366;5.980;2023-04-12T05:46:20;99732.16;;;8.76;70.36
69574;BME280;62840;52.366;5.980;2023-04-12T05:48:48;99730.19;;;8.78;70.27
69574;BME280;62840;52.366;5.980;2023-04-12T05:51:18;99729.88;;;8.81;70.28
69574;BME280;62840;52.366;5.980;2023-04-12T05:53:44;99729.88;;;8.81;70.56
69574;BME280;62840;52.366;5.980;2023-04-12T05:56:13;99724.72;;;8.79;70.27
69574;BME280;62840;52.366;5.980;2023-04-12T05:58:40;99721.91;;;8.81;70.34
69574;BME280;62840;52.366;5.980;2023-04-12T06:01:06;99724.56;;;8.81;70.33
69574;BME280;62840;52.366;5.980;2023-04-12T06:03:32;99728.75;;;8.84;70.30
69574;BME280;62840;52.366;5.980;2023-04-12T06:06:01;99740.25;;;8.84;70.70
69574;BME280;62840;52.366;5.980;2023-04-12T06:08:28;99720.94;;;8.82;70.42
69574;BME280;62840;52.366;5.980;2023-04-12T06:10:54;99724.56;;;8.81;70.58
69574;BME280;62840;52.366;5.980;2023-04-12T06:13:25;99717.72;;;8.78;70.57
69574;BME280;62840;52.366;5.980;2023-04-12T06:15:51;99724.88;;;8.78;70.74
69574;BME280;62840;52.366;5.980;2023-04-12T06:18:19;99718.56;;;8.79;70.59
69574;BME280;62840;52.366;5.980;2023-04-12T06:20:45;99718.56;;;8.79;70.87
69574;BME280;62840;52.366;5.980;2023-04-12T06:23:11;99705.25;;;8.79;70.77
69574;BME280;62840;52.366;5.980;2023-04-12T06:25:37;99705.25;;;8.79;70.96
69574;BME280;62840;52.366;5.980;2023-04-12T06:28:03;99698.97;;;8.80;70.81
69574;BME280;62840;52.366;5.980;2023-04-12T06:30:34;99697.16;;;8.80;70.95
69574;BME280;62840;52.366;5.980;2023-04-12T06:33:03;99698.81;;;8.82;70.78
69574;BME280;62840;52.366;5.980;2023-04-12T06:35:34;99700.66;;;8.81;70.74
69574;BME280;62840;52.366;5.980;2023-04-12T06:38:00;99690.84;;;8.82;70.84
69574;BME280;62840;52.366;5.980;2023-04-12T06:40:28;99701.34;;;8.83;71.02
69574;BME280;62840;52.366;5.980;2023-04-12T06:42:56;99692.41;;;8.84;70.79
69574;BME280;62840;52.366;5.980;2023-04-12T06:45:22;99699.06;;;8.88;70.84
69574;BME280;62840;52.366;5.980;2023-04-12T06:47:52;99695.47;;;8.89;70.89
69574;BME280;62840;52.366;5.980;2023-04-12T06:50:21;99698.81;;;8.91;70.84
69574;BME280;62840;52.366;5.980;2023-04-12T06:52:47;99684.53;;;8.92;71.03
69574;BME280;62840;52.366;5.980;2023-04-12T06:55:13;99687.88;;;8.94;70.80
69574;BME280;62840;52.366;5.980;2023-04-12T06:57:42;99686.75;;;8.97;70.73
69574;BME280;62840;52.366;5.980;2023-04-12T07:00:09;99679.63;;;8.97;70.60
69574;BME280;62840;52.366;5.980;2023-04-12T07:02:41;99685.59;;;8.99;70.78
69574;BME280;62840;52.366;5.980;2023-04-12T07:05:10;99683.66;;;9.01;70.87
69574;BME280;62840;52.366;5.980;2023-04-12T07:07:36;99681.97;;;9.00;70.80
69574;BME280;62840;52.366;5.980;2023-04-12T07:10:06;99676.66;;;9.00;70.81
69574;BME280;62840;52.366;5.980;2023-04-12T07:12:33;99693.16;;;9.04;70.95
69574;BME280;62840;52.366;5.980;2023-04-12T07:14:59;99678.06;;;9.05;70.87
69574;BME280;62840;52.366;5.980;2023-04-12T07:17:28;99686.72;;;9.07;70.82
69574;BME280;62840;52.366;5.980;2023-04-12T07:19:54;99676.09;;;9.07;70.90
69574;BME280;62840;52.366;5.980;2023-04-12T07:22:23;99678.59;;;9.08;71.00
69574;BME280;62840;52.366;5.980;2023-04-12T07:24:49;99681.09;;;9.10;71.07
69574;BME280;62840;52.366;5.980;2023-04-12T07:27:16;99671.84;;;9.14;71.14
69574;BME280;62840;52.366;5.980;2023-04-12T07:29:42;99667.50;;;9.13;71.24
69574;BME280;62840;52.366;5.980;2023-04-12T07:32:09;99675.22;;;9.16;71.03
69574;BME280;62840;52.366;5.980;2023-04-12T07:34:35;99671.28;;;9.20;70.93
69574;BME280;62840;52.366;5.980;2023-04-12T07:37:01;99669.28;;;9.22;70.98
69574;BME280;62840;52.366;5.980;2023-04-12T07:39:32;99676.00;;;9.26;71.05
69574;BME280;62840;52.366;5.980;2023-04-12T07:41:59;99667.03;;;9.27;71.05
69574;BME280;62840;52.366;5.980;2023-04-12T07:44:26;99669.44;;;9.30;70.99
69574;BME280;62840;52.366;5.980;2023-04-12T07:46:52;99666.47;;;9.33;71.06
69574;BME280;62840;52.366;5.980;2023-04-12T07:49:18;99661.81;;;9.35;71.08
69574;BME280;62840;52.366;5.980;2023-04-12T07:51:44;99663.06;;;9.41;70.88
69574;BME280;62840;52.366;5.980;2023-04-12T07:54:10;99661.63;;;9.47;71.07
69574;BME280;62840;52.366;5.980;2023-04-12T07:56:38;99667.50;;;9.50;71.09
69574;BME280;62840;52.366;5.980;2023-04-12T07:59:04;99671.53;;;9.54;71.18
69574;BME280;62840;52.366;5.980;2023-04-12T08:01:30;99678.38;;;9.57;70.96
69574;BME280;62840;52.366;5.980;2023-04-12T08:03:55;99667.75;;;9.57;71.11
69574;BME280;62840;52.366;5.980;2023-04-12T08:06:21;99677.38;;;9.58;71.22
69574;BME280;62840;52.366;5.980;2023-04-12T08:08:50;99674.72;;;9.58;71.33
69574;BME280;62840;52.366;5.980;2023-04-12T08:11:18;99660.72;;;9.56;71.32
69574;BME280;62840;52.366;5.980;2023-04-12T08:13:48;99668.06;;;9.54;71.31
69574;BME280;62840;52.366;5.980;2023-04-12T08:16:16;99663.56;;;9.54;71.32
69574;BME280;62840;52.366;5.980;2023-04-12T08:18:42;99666.91;;;9.56;71.27
69574;BME280;62840;52.366;5.980;2023-04-12T08:21:12;99674.44;;;9.61;71.32
69574;BME280;62840;52.366;5.980;2023-04-12T08:23:39;99675.81;;;9.65;71.63
69574;BME280;62840;52.366;5.980;2023-04-12T08:26:09;99662.34;;;9.67;71.62
69574;BME280;62840;52.366;5.980;2023-04-12T08:28:38;99667.09;;;9.73;71.45
69574;BME280;62840;52.366;5.980;2023-04-12T08:31:07;99673.78;;;9.77;71.44
69574;BME280;62840;52.366;5.980;2023-04-12T08:33:35;99670.66;;;9.81;71.57
69574;BME280;62840;52.366;5.980;2023-04-12T08:36:06;99663.06;;;9.87;71.74
69574;BME280;62840;52.366;5.980;2023-04-12T08:38:36;99655.75;;;9.89;71.60
69574;BME280;62840;52.366;5.980;2023-04-12T08:41:03;99658.78;;;9.94;71.61
69574;BME280;62840;52.366;5.980;2023-04-12T08:43:31;99658.19;;;10.00;71.54
69574;BME280;62840;52.366;5.980;2023-04-12T08:46:00;99657.59;;;10.06;71.64
69574;BME280;62840;52.366;5.980;2023-04-12T08:48:33;99655.28;;;10.11;71.65
69574;BME280;62840;52.366;5.980;2023-04-12T08:51:01;99655.97;;;10.13;71.37
69574;BME280;62840;52.366;5.980;2023-04-12T08:53:30;99655.84;;;10.15;71.39
69574;BME280;62840;52.366;5.980;2023-04-12T08:55:57;99654.97;;;10.14;71.31
69574;BME280;62840;52.366;5.980;2023-04-12T08:58:26;99654.69;;;10.17;71.30
69574;BME280;62840;52.366;5.980;2023-04-12T09:00:52;99665.03;;;10.20;71.33
69574;BME280;62840;52.366;5.980;2023-04-12T09:03:25;99653.41;;;10.21;71.53
69574;BME280;62840;52.366;5.980;2023-04-12T09:05:58;99654.75;;;10.25;71.33
69574;BME280;62840;52.366;5.980;2023-04-12T09:08:27;99649.81;;;10.31;71.51
69574;BME280;62840;52.366;5.980;2023-04-12T09:10:56;99661.81;;;10.35;71.28
69574;BME280;62840;52.366;5.980;2023-04-12T09:13:31;99652.50;;;10.39;71.36
69574;BME280;62840;52.366;5.980;2023-04-12T09:16:01;99647.19;;;10.39;71.29
69574;BME280;62840;52.366;5.980;2023-04-12T09:18:29;99643.22;;;10.43;71.42
69574;BME280;62840;52.366;5.980;2023-04-12T09:21:14;99637.28;;;10.49;71.82
69574;BME280;62840;52.366;5.980;2023-04-12T09:23:40;99620.34;;;10.58;71.48
69574;BME280;62840;52.366;5.980;2023-04-12T09:26:08;99622.41;;;10.73;71.57
69574;BME280;62840;52.366;5.980;2023-04-12T09:28:57;99615.53;;;10.88;71.82
69574;BME280;62840;52.366;5.980;2023-04-12T09:31:24;99628.28;;;11.02;71.51
69574;BME280;62840;52.366;5.980;2023-04-12T09:33:59;99630.28;;;11.08;71.20
69574;BME280;62840;52.366;5.980;2023-04-12T09:36:39;99633.84;;;11.17;71.16
69574;BME280;62840;52.366;5.980;2023-04-12T09:39:09;99640.38;;;11.23;71.17
69574;BME280;62840;52.366;5.980;2023-04-12T09:41:38;99641.41;;;11.30;71.64
69574;BME280;62840;52.366;5.980;2023-04-12T09:44:04;99626.41;;;11.37;70.95
69574;BME280;62840;52.366;5.980;2023-04-12T09:46:33;99629.25;;;11.44;70.54
69574;BME280;62840;52.366;5.980;2023-04-12T09:49:14;99638.63;;;11.48;70.84
69574;BME280;62840;52.366;5.980;2023-04-12T09:51:50;99635.47;;;11.53;70.90
69574;BME280;62840;52.366;5.980;2023-04-12T09:54:19;99630.13;;;11.53;70.51
69574;BME280;62840;52.366;5.980;2023-04-12T09:56:47;99631.78;;;11.54;70.65
69574;BME280;62840;52.366;5.980;2023-04-12T09:59:15;99622.44;;;11.58;70.45
69574;BME280;62840;52.366;5.980;2023-04-12T10:01:44;99627.31;;;11.62;70.62
69574;BME280;62840;52.366;5.980;2023-04-12T10:04:16;99623.16;;;11.68;70.52
69574;BME280;62840;52.366;5.980;2023-04-12T10:06:46;99615.47;;;11.73;70.86
69574;BME280;62840;52.366;5.980;2023-04-12T10:09:14;99622.16;;;11.77;70.32
69574;BME280;62840;52.366;5.980;2023-04-12T10:11:43;99613.66;;;11.82;70.25
69574;BME280;62840;52.366;5.980;2023-04-12T10:14:12;99612.16;;;11.87;69.63
69574;BME280;62840;52.366;5.980;2023-04-12T10:16:41;99616.84;;;11.94;68.67
69574;BME280;62840;52.366;5.980;2023-04-12T10:19:09;99613.16;;;11.95;69.22
69574;BME280;62840;52.366;5.980;2023-04-12T10:21:41;99616.34;;;11.98;68.95
69574;BME280;62840;52.366;5.980;2023-04-12T10:24:10;99617.84;;;12.01;69.12
69574;BME280;62840;52.366;5.980;2023-04-12T10:26:40;99614.84;;;12.04;68.90
69574;BME280;62840;52.366;5.980;2023-04-12T10:29:22;99616.66;;;12.03;68.92
69574;BME280;62840;52.366;5.980;2023-04-12T10:31:53;99610.16;;;12.06;68.85
69574;BME280;62840;52.366;5.980;2023-04-12T10:34:26;99615.50;;;12.06;68.50
69574;BME280;62840;52.366;5.980;2023-04-12T10:36:54;99611.00;;;12.06;68.55
69574;BME280;62840;52.366;5.980;2023-04-12T10:39:41;99613.19;;;12.11;68.84
69574;BME280;62840;52.366;5.980;2023-04-12T10:42:24;99608.00;;;12.18;68.65
69574;BME280;62840;52.366;5.980;2023-04-12T10:48:28;99609.16;;;12.23;68.32
69574;BME280;62840;52.366;5.980;2023-04-12T10:51:16;99605.13;;;12.19;67.98
69574;BME280;62840;52.366;5.980;2023-04-12T10:53:43;99608.81;;;12.18;68.20
69574;BME280;62840;52.366;5.980;2023-04-12T10:56:40;99597.47;;;12.16;68.11
69574;BME280;62840;52.366;5.980;2023-04-12T10:59:24;99599.63;;;12.12;67.78
69574;BME280;62840;52.366;5.980;2023-04-12T11:02:08;99599.78;;;12.19;68.06
69574;BME280;62840;52.366;5.980;2023-04-12T11:05:05;99589.44;;;12.32;67.83
69574;BME280;62840;52.366;5.980;2023-04-12T11:07:39;99597.13;;;12.44;67.54
69574;BME280;62840;52.366;5.980;2023-04-12T11:10:11;99600.16;;;12.49;66.90
69574;BME280;62840;52.366;5.980;2023-04-12T11:12:41;99598.13;;;12.51;66.47
69574;BME280;62840;52.366;5.980;2023-04-12T11:15:14;99606.16;;;12.51;66.44
69574;BME280;62840;52.366;5.980;2023-04-12T11:17:41;99604.78;;;12.55;66.75
69574;BME280;62840;52.366;5.980;2023-04-12T11:20:10;99596.41;;;12.66;65.84
69574;BME280;62840;52.366;5.980;2023-04-12T11:22:43;99599.06;;;12.74;65.70
69574;BME280;62840;52.366;5.980;2023-04-12T11:25:15;99604.72;;;12.88;66.18
69574;BME280;62840;52.366;5.980;2023-04-12T11:27:50;99599.00;;;12.91;65.43
69574;BME280;62840;52.366;5.980;2023-04-12T11:30:19;99594.00;;;12.88;65.42
69574;BME280;62840;52.366;5.980;2023-04-12T11:32:46;99598.56;;;12.79;64.52
69574;BME280;62840;52.366;5.980;2023-04-12T11:35:15;99599.75;;;12.68;64.97
69574;BME280;62840;52.366;5.980;2023-04-12T11:37:44;99611.47;;;12.59;65.24
69574;BME280;62840;52.366;5.980;2023-04-12T11:40:10;99608.84;;;12.51;65.12
69574;BME280;62840;52.366;5.980;2023-04-12T11:42:38;99602.97;;;12.47;65.48
69574;BME280;62840;52.366;5.980;2023-04-12T11:45:17;99602.81;;;12.49;64.95
69574;BME280;62840;52.366;5.980;2023-04-12T11:47:48;99597.78;;;12.54;65.58
69574;BME280;62840;52.366;5.980;2023-04-12T11:50:27;99590.06;;;12.59;65.50
69574;BME280;62840;52.366;5.980;2023-04-12T11:53:08;99597.09;;;12.60;64.73
69574;BME280;62840;52.366;5.980;2023-04-12T11:55:35;99597.44;;;12.57;64.77
69574;BME280;62840;52.366;5.980;2023-04-12T11:58:01;99587.56;;;12.58;65.01
69574;BME280;62840;52.366;5.980;2023-04-12T12:00:32;99608.13;;;12.57;64.88
69574;BME280;62840;52.366;5.980;2023-04-12T12:02:59;99599.44;;;12.55;64.90
69574;BME280;62840;52.366;5.980;2023-04-12T12:05:25;99605.13;;;12.52;65.05
69574;BME280;62840;52.366;5.980;2023-04-12T12:07:52;99612.84;;;12.47;64.99
69574;BME280;62840;52.366;5.980;2023-04-12T12:10:22;99633.25;;;12.40;64.74
69574;BME280;62840;52.366;5.980;2023-04-12T12:12:48;99653.97;;;12.29;64.80
69574;BME280;62840;52.366;5.980;2023-04-12T12:15:16;99678.97;;;12.12;64.56
69574;BME280;62840;52.366;5.980;2023-04-12T12:17:50;99688.28;;;11.75;64.59
69574;BME280;62840;52.366;5.980;2023-04-12T12:20:20;99683.78;;;11.33;64.97
69574;BME280;62840;52.366;5.980;2023-04-12T12:22:48;99685.28;;;11.01;65.62
69574;BME280;62840;52.366;5.980;2023-04-12T12:25:18;99675.44;;;10.76;65.84
69574;BME280;62840;52.366;5.980;2023-04-12T12:27:56;99663.00;;;10.58;66.49
69574;BME280;62840;52.366;5.980;2023-04-12T12:30:22;99665.59;;;10.50;66.95
69574;BME280;62840;52.366;5.980;2023-04-12T12:32:52;99658.91;;;10.46;67.20
69574;BME280;62840;52.366;5.980;2023-04-12T12:35:21;99653.88;;;10.43;67.42
69574;BME280;62840;52.366;5.980;2023-04-12T12:37:52;99655.88;;;10.41;67.24
69574;BME280;62840;52.366;5.980;2023-04-12T12:40:27;99655.88;;;10.41;67.26
69574;BME280;62840;52.366;5.980;2023-04-12T12:42:57;99646.34;;;10.38;67.31
69574;BME280;62840;52.366;5.980;2023-04-12T12:45:25;99642.19;;;10.36;67.77
69574;BME280;62840;52.366;5.980;2023-04-12T12:47:59;99640.34;;;10.36;67.94
69574;BME280;62840;52.366;5.980;2023-04-12T12:50:32;99652.50;;;10.39;68.11
69574;BME280;62840;52.366;5.980;2023-04-12T12:53:02;99652.38;;;10.40;68.16
69574;BME280;62840;52.366;5.980;2023-04-12T12:55:29;99653.88;;;10.43;68.29
69574;BME280;62840;52.366;5.980;2023-04-12T12:57:57;99652.44;;;10.49;68.65
69574;BME280;62840;52.366;5.980;2023-04-12T13:00:29;99652.31;;;10.58;68.78
69574;BME280;62840;52.366;5.980;2023-04-12T13:03:02;99650.09;;;10.72;68.57
69574;BME280;62840;52.366;5.980;2023-04-12T13:05:28;99646.78;;;10.78;68.35
69574;BME280;62840;52.366;5.980;2023-04-12T13:07:57;99638.31;;;10.82;68.69
69574;BME280;62840;52.366;5.980;2023-04-12T13:10:23;99635.19;;;10.87;68.78
69574;BME280;62840;52.366;5.980;2023-04-12T13:12:49;99631.53;;;10.88;68.63
69574;BME280;62840;52.366;5.980;2023-04-12T13:15:20;99627.88;;;10.89;68.67
69574;BME280;62840;52.366;5.980;2023-04-12T13:17:47;99631.22;;;10.91;68.59
69574;BME280;62840;52.366;5.980;2023-04-12T13:20:15;99631.72;;;10.95;68.80